Time;durP1;ratioP1;P1;durP2;ratioP2;P2;SDS_P1;SDS_P2;PMS_P1;PMS_P2;Temp;Humidity;BMP_temperature;BMP_pressure;BME280_temperature;BME280_humidity;BME280_pressure;Samples;Min_cycle;Max_cycle;Signal;HPM_P1;HPM_P2
2022/10/24 00:01:30;;;;;;;5.57;1.52;;;;;;;22.70;56.79;100432.78;4953205;28;20047;-71
2022/10/24 00:03:56;;;;;;;6.85;1.73;;;;;;;22.92;55.63;100429.97;4955306;28;20051;-70
2022/10/24 00:06:22;;;;;;;7.95;2.05;;;;;;;22.96;55.25;100430.16;4972409;28;20047;-70
2022/10/24 00:08:48;;;;;;;7.80;1.70;;;;;;;22.44;57.31;100421.66;4971047;28;20517;-71
2022/10/24 00:11:17;;;;;;;4.63;1.77;;;;;;;22.34;57.29;100416.44;4953314;28;20506;-69
2022/10/24 00:13:43;;;;;;;7.32;1.73;;;;;;;22.59;56.76;100417.72;4967706;28;20039;-72
2022/10/24 00:16:09;;;;;;;5.85;1.77;;;;;;;22.43;56.86;100420.03;4953327;28;20038;-72
2022/10/24 00:18:34;;;;;;;4.90;2.65;;;;;;;22.69;56.59;100425.69;4951748;28;20039;-71
2022/10/24 00:21:00;;;;;;;4.32;1.92;;;;;;;22.21;57.97;100431.00;4953111;28;20055;-71
2022/10/24 00:23:25;;;;;;;3.65;1.75;;;;;;;22.75;56.39;100429.91;4952931;28;20038;-72
2022/10/24 00:25:51;;;;;;;6.60;2.03;;;;;;;22.84;56.17;100425.25;4951647;29;20059;-70
2022/10/24 00:28:16;;;;;;;6.85;1.88;;;;;;;22.51;57.32;100434.91;4952401;28;20043;-71
2022/10/24 00:30:42;;;;;;;6.35;2.45;;;;;;;22.54;57.56;100432.31;4953770;28;20031;-72
2022/10/24 00:33:07;;;;;;;6.22;1.63;;;;;;;23.10;55.32;100434.38;4952200;28;20035;-71
2022/10/24 00:35:32;;;;;;;6.18;1.83;;;;;;;22.89;56.42;100427.06;4953520;28;20023;-71
2022/10/24 00:37:58;;;;;;;6.40;2.28;;;;;;;22.46;57.66;100424.91;4952208;29;20411;-71
2022/10/24 00:40:23;;;;;;;5.15;2.10;;;;;;;22.52;57.82;100420.91;4953498;28;20115;-72
2022/10/24 00:42:49;;;;;;;7.78;2.35;;;;;;;22.41;57.76;100425.00;4953379;28;20046;-71
2022/10/24 00:45:55;;;;;;;11.57;2.83;;;;;;;22.37;57.82;100421.28;4953479;28;20113;-72
2022/10/24 00:48:23;;;;;;;10.30;2.95;;;;;;;22.79;56.80;100397.19;4953793;28;20036;-71
2022/10/24 00:50:52;;;;;;;15.45;2.90;;;;;;;22.57;57.31;100404.34;4953243;28;20046;-70
2022/10/24 00:53:20;;;;;;;8.88;3.17;;;;;;;21.84;60.00;100404.00;4953897;28;20048;-71
2022/10/24 00:55:49;;;;;;;12.88;3.00;;;;;;;22.57;57.23;100398.06;4957660;28;20043;-72
2022/10/24 00:58:16;;;;;;;7.13;3.17;;;;;;;22.26;58.34;100395.31;4957220;28;20122;-72
2022/10/24 01:00:42;;;;;;;9.27;3.70;;;;;;;22.58;56.82;100384.03;4957056;28;20031;-72
2022/10/24 01:03:10;;;;;;;7.45;3.42;;;;;;;22.28;57.99;100392.25;4957175;28;20384;-70
2022/10/24 01:05:46;;;;;;;9.63;3.63;;;;;;;22.44;57.32;100377.03;4966634;28;20053;-71
2022/10/24 01:08:17;;;;;;;14.00;4.55;;;;;;;22.53;57.28;100377.88;4957268;28;20023;-72
2022/10/24 01:11:02;;;;;;;10.10;4.05;;;;;;;22.49;56.83;100385.09;4956849;28;20511;-71
2022/10/24 01:13:46;;;;;;;7.28;2.95;;;;;;;22.18;58.01;100382.38;4956649;28;20039;-72
2022/10/24 01:16:19;;;;;;;8.15;3.15;;;;;;;22.26;57.94;100373.41;4956791;28;20035;-72
2022/10/24 01:18:50;;;;;;;7.35;4.28;;;;;;;22.05;57.78;100371.50;4956415;28;20043;-72
2022/10/24 01:21:32;;;;;;;7.32;2.85;;;;;;;22.15;57.49;100376.72;4955101;29;20046;-72
2022/10/24 01:24:40;;;;;;;11.23;3.65;;;;;;;22.25;58.11;100368.25;4956248;28;20519;-71
2022/10/24 01:27:18;;;;;;;12.55;3.75;;;;;;;22.39;57.25;100358.81;4956491;28;20073;-72
2022/10/24 01:30:02;;;;;;;7.03;3.30;;;;;;;21.88;58.88;100358.50;4956537;28;20035;-70
2022/10/24 01:33:01;;;;;;;6.43;2.70;;;;;;;21.92;58.36;100350.47;4937520;29;20039;-71
2022/10/24 01:35:50;;;;;;;7.03;2.85;;;;;;;22.29;56.68;100356.34;4937057;29;20031;-72
2022/10/24 01:38:40;;;;;;;8.68;2.67;;;;;;;22.30;56.63;100357.97;4937757;29;20091;-71
2022/10/24 01:41:09;;;;;;;6.47;2.47;;;;;;;21.80;58.78;100345.53;4937298;29;20055;-72
2022/10/24 01:43:41;;;;;;;8.23;2.53;;;;;;;22.20;56.97;100335.50;4943036;28;20558;-72
2022/10/24 01:46:11;;;;;;;13.43;2.85;;;;;;;21.97;57.70;100342.97;4975554;28;20125;-72
2022/10/24 01:48:48;;;;;;;13.25;2.65;;;;;;;21.84;58.06;100333.69;4975600;28;20042;-71
2022/10/24 01:51:17;;;;;;;10.05;2.90;;;;;;;21.80;57.71;100329.13;4959022;28;20031;-71
2022/10/24 01:53:44;;;;;;;10.25;3.15;;;;;;;21.49;58.45;100334.53;4955901;28;20170;-71
2022/10/24 01:56:10;;;;;;;5.72;2.55;;;;;;;22.23;56.23;100329.44;4956502;28;20159;-71
2022/10/24 01:58:35;;;;;;;5.50;2.80;;;;;;;21.71;57.39;100325.53;4955690;28;20055;-72
2022/10/24 02:01:08;;;;;;;9.60;2.85;;;;;;;21.82;57.65;100318.72;4956289;28;20031;-72
2022/10/24 02:03:56;;;;;;;11.60;3.60;;;;;;;21.94;56.95;100305.28;4955956;28;20399;-73
2022/10/24 02:06:31;;;;;;;10.82;2.60;;;;;;;22.03;56.73;100303.41;4936849;29;20047;-71
2022/10/24 02:09:04;;;;;;;8.32;2.88;;;;;;;21.38;58.91;100311.31;4936761;29;20080;-72
2022/10/24 02:11:30;;;;;;;8.80;3.38;;;;;;;21.08;59.43;100303.78;4937105;29;20039;-71
2022/10/24 02:14:01;;;;;;;8.60;2.25;;;;;;;21.58;57.86;100301.81;4937242;29;20063;-71
2022/10/24 02:16:28;;;;;;;11.10;3.40;;;;;;;21.51;57.52;100296.75;4936576;29;20082;-73
2022/10/24 02:18:56;;;;;;;8.77;2.95;;;;;;;21.55;57.59;100297.75;4936419;29;20499;-71
2022/10/24 02:21:35;;;;;;;9.67;2.20;;;;;;;21.72;57.25;100294.31;4950586;28;20118;-71
2022/10/24 02:24:20;;;;;;;11.80;2.55;;;;;;;21.79;56.42;100291.97;4955757;28;20392;-71
2022/10/24 02:27:02;;;;;;;10.38;2.55;;;;;;;21.35;57.75;100292.75;4955473;28;20495;-71
2022/10/24 02:29:57;;;;;;;5.53;3.08;;;;;;;21.21;58.74;100281.06;4955559;28;20085;-71
2022/10/24 02:32:29;;;;;;;10.95;2.80;;;;;;;21.92;56.46;100284.81;4955848;28;20027;-71
2022/10/24 02:34:55;;;;;;;11.93;2.53;;;;;;;21.76;56.40;100279.72;4955943;28;20622;-72
2022/10/24 02:37:24;;;;;;;7.45;2.97;;;;;;;21.46;57.42;100283.19;4955406;28;20043;-71
2022/10/24 02:39:51;;;;;;;15.50;3.03;;;;;;;20.50;60.27;100289.19;4958214;28;20521;-72
2022/10/24 02:42:19;;;;;;;16.60;3.13;;;;;;;21.16;58.37;100273.00;4974401;28;20051;-71
2022/10/24 02:44:47;;;;;;;7.65;2.55;;;;;;;21.67;57.06;100278.84;4973016;28;20046;-73
2022/10/24 02:47:13;;;;;;;13.57;3.03;;;;;;;21.04;57.70;100277.38;4974858;28;20042;-71
2022/10/24 02:49:40;;;;;;;8.73;3.15;;;;;;;21.69;56.67;100268.41;4966106;28;20043;-71
2022/10/24 02:52:06;;;;;;;8.13;3.97;;;;;;;21.64;56.84;100267.75;4935708;29;20048;-70
2022/10/24 02:54:32;;;;;;;8.73;3.00;;;;;;;21.09;57.64;100263.63;4935886;29;20083;-71
2022/10/24 02:57:01;;;;;;;13.38;3.00;;;;;;;21.80;56.28;100274.41;4935977;29;20032;-70
2022/10/24 02:59:27;;;;;;;10.27;2.70;;;;;;;21.26;57.59;100271.94;4935585;29;20027;-69
2022/10/24 03:01:52;;;;;;;6.82;2.17;;;;;;;22.03;55.60;100273.31;4941713;29;20043;-70
2022/10/24 03:04:18;;;;;;;6.07;2.25;;;;;;;22.02;55.80;100268.94;4959857;28;20031;-71
2022/10/24 03:06:43;;;;;;;12.52;3.30;;;;;;;21.14;57.55;100271.69;4974109;28;20038;-71
2022/10/24 03:09:08;;;;;;;8.63;2.63;;;;;;;21.71;56.49;100270.84;4974062;28;20038;-70
2022/10/24 03:11:34;;;;;;;17.08;3.05;;;;;;;21.76;56.19;100273.41;4974092;28;20038;-71
2022/10/24 03:14:00;;;;;;;15.20;2.72;;;;;;;21.57;56.32;100273.63;4974740;28;20447;-70
2022/10/24 03:16:26;;;;;;;9.70;2.10;;;;;;;21.64;56.06;100265.78;4967925;28;20464;-70
2022/10/24 03:18:52;;;;;;;10.77;3.33;;;;;;;21.14;57.56;100272.50;4952990;28;20514;-70
2022/10/24 03:21:17;;;;;;;10.82;2.75;;;;;;;21.45;55.83;100273.38;4954255;28;20044;-71
2022/10/24 03:23:43;;;;;;;11.35;2.95;;;;;;;21.54;55.46;100281.66;4954389;28;20039;-70
2022/10/24 03:26:08;;;;;;;7.82;2.55;;;;;;;21.46;55.80;100276.94;4954938;28;20031;-70
2022/10/24 03:28:34;;;;;;;7.70;2.58;;;;;;;21.44;55.84;100273.72;4954480;28;20542;-70
2022/10/24 03:30:59;;;;;;;4.78;2.65;;;;;;;20.80;57.20;100275.69;4954416;28;20031;-71
2022/10/24 03:33:24;;;;;;;8.77;2.30;;;;;;;20.54;57.93;100273.81;4954777;28;20035;-71
2022/10/24 03:35:52;;;;;;;8.35;2.92;;;;;;;21.18;56.26;100273.50;4954981;28;20360;-72
2022/10/24 03:38:18;;;;;;;6.78;2.30;;;;;;;21.43;55.18;100274.81;4972724;28;20030;-71
2022/10/24 03:40:43;;;;;;;5.85;2.47;;;;;;;21.20;55.71;100278.66;4973338;28;20395;-71
2022/10/24 03:43:08;;;;;;;10.27;2.58;;;;;;;21.05;56.47;100279.00;4973386;28;20042;-72
2022/10/24 03:45:34;;;;;;;9.18;2.75;;;;;;;21.22;55.73;100288.16;4973495;28;20042;-72
2022/10/24 03:47:59;;;;;;;11.50;3.15;;;;;;;21.73;53.78;100280.34;4971743;28;20489;-71
2022/10/24 03:50:25;;;;;;;13.90;2.55;;;;;;;21.51;54.28;100277.63;4963627;28;20031;-70
2022/10/24 03:52:50;;;;;;;8.20;2.20;;;;;;;21.61;54.41;100268.34;4954089;28;20050;-70
2022/10/24 03:55:15;;;;;;;10.13;2.20;;;;;;;21.69;54.13;100278.53;4953849;28;20050;-71
2022/10/24 03:57:41;;;;;;;8.13;2.50;;;;;;;21.06;55.30;100280.63;4953966;28;20066;-70
2022/10/24 04:00:07;;;;;;;5.55;1.77;;;;;;;21.28;55.21;100275.19;4953901;28;20090;-71
2022/10/24 04:02:32;;;;;;;11.73;2.38;;;;;;;20.72;56.73;100279.13;4953504;28;20534;-72
2022/10/24 04:04:58;;;;;;;16.92;2.83;;;;;;;21.25;55.16;100283.97;4964822;28;20038;-71
2022/10/24 04:07:23;;;;;;;4.07;1.80;;;;;;;21.44;54.57;100277.25;4987486;28;20046;-72
2022/10/24 04:09:49;;;;;;;8.88;2.72;;;;;;;21.28;54.36;100278.72;4972835;28;20398;-70
2022/10/24 04:12:14;;;;;;;6.53;1.92;;;;;;;21.06;55.32;100281.44;4971077;28;20038;-71
2022/10/24 04:14:40;;;;;;;9.07;2.40;;;;;;;21.17;54.92;100279.28;4953491;28;20042;-72
2022/10/24 04:17:05;;;;;;;11.30;2.20;;;;;;;20.94;55.44;100281.13;4954006;28;20561;-71
2022/10/24 04:19:31;;;;;;;8.95;2.30;;;;;;;20.87;55.54;100284.25;4953505;28;20522;-70
2022/10/24 04:21:57;;;;;;;7.38;1.90;;;;;;;20.55;56.38;100278.97;4953309;28;20518;-72
2022/10/24 04:24:22;;;;;;;10.48;1.92;;;;;;;21.27;53.98;100279.84;4952368;28;20046;-71
2022/10/24 04:26:48;;;;;;;13.32;1.98;;;;;;;21.07;54.47;100280.28;4953747;28;20042;-70
2022/10/24 04:29:13;;;;;;;5.55;1.70;;;;;;;21.08;54.40;100287.41;4955718;28;20034;-70
2022/10/24 04:31:39;;;;;;;8.27;1.83;;;;;;;20.89;54.76;100284.75;4957609;28;20042;-70
2022/10/24 04:34:05;;;;;;;6.22;2.13;;;;;;;20.47;55.77;100292.50;4974220;28;20042;-69
2022/10/24 04:36:31;;;;;;;10.27;1.77;;;;;;;21.12;53.80;100285.66;4976770;28;20517;-70
2022/10/24 04:38:56;;;;;;;7.03;1.73;;;;;;;20.52;55.62;100295.16;4976818;28;20038;-71
2022/10/24 04:41:22;;;;;;;5.75;1.33;;;;;;;21.07;54.02;100280.28;4976732;28;20037;-71
2022/10/24 04:43:47;;;;;;;4.20;1.52;;;;;;;21.21;53.57;100281.06;4977177;28;20059;-72
2022/10/24 04:46:13;;;;;;;10.63;2.60;;;;;;;21.00;53.74;100280.72;4976708;28;20049;-71
2022/10/24 04:48:38;;;;;;;13.43;2.80;;;;;;;20.48;55.00;100283.22;4976321;28;20094;-72
2022/10/24 04:51:04;;;;;;;10.82;2.22;;;;;;;20.72;54.03;100281.88;4959642;28;20514;-72
2022/10/24 04:53:29;;;;;;;9.63;2.28;;;;;;;21.38;52.36;100281.22;4956231;28;20388;-71
2022/10/24 04:55:55;;;;;;;13.13;1.33;;;;;;;21.48;51.89;100286.44;4951734;28;20027;-71
2022/10/24 04:58:20;;;;;;;9.35;1.70;;;;;;;20.96;52.77;100279.72;4946301;28;20043;-70
2022/10/24 05:00:48;;;;;;;7.93;2.10;;;;;;;21.29;52.29;100287.72;4957038;28;20035;-71
2022/10/24 05:03:14;;;;;;;10.70;1.92;;;;;;;21.18;52.86;100286.34;4967390;28;20058;-71
2022/10/24 05:05:39;;;;;;;8.38;1.45;;;;;;;21.01;52.63;100281.56;4947431;28;20651;-71
2022/10/24 05:08:05;;;;;;;7.32;1.50;;;;;;;21.12;52.56;100280.19;4946959;29;20062;-71
2022/10/24 05:10:30;;;;;;;6.32;1.70;;;;;;;20.96;52.53;100270.69;4951571;28;20047;-72
2022/10/24 05:12:56;;;;;;;6.63;1.13;;;;;;;21.37;51.73;100274.13;4950893;28;20563;-71
2022/10/24 05:15:21;;;;;;;3.60;1.20;;;;;;;21.31;51.65;100275.38;4948540;28;20028;-71
2022/10/24 05:17:47;;;;;;;12.52;1.85;;;;;;;21.63;50.91;100279.78;4946629;28;20419;-71
2022/10/24 05:20:13;;;;;;;5.88;1.40;;;;;;;21.40;51.74;100273.53;4946967;29;20027;-70
2022/10/24 05:22:38;;;;;;;8.65;2.65;;;;;;;21.80;50.82;100282.63;4945216;28;20361;-71
2022/10/24 05:25:04;;;;;;;7.57;1.65;;;;;;;21.59;50.83;100278.78;4947415;28;20392;-71
2022/10/24 05:27:30;;;;;;;8.20;1.70;;;;;;;21.31;51.69;100278.09;4953554;28;20097;-71
2022/10/24 05:29:55;;;;;;;8.13;2.00;;;;;;;20.74;53.71;100276.09;4949337;28;20059;-70
2022/10/24 05:32:22;;;;;;;12.80;1.55;;;;;;;21.50;51.29;100281.44;4948022;28;20027;-71
2022/10/24 05:34:48;;;;;;;9.68;1.38;;;;;;;21.80;50.29;100282.63;4942626;28;20043;-70
2022/10/24 05:37:13;;;;;;;4.10;0.90;;;;;;;22.06;49.73;100278.13;4944093;28;20039;-71
2022/10/24 05:39:39;;;;;;;3.63;0.98;;;;;;;21.83;50.36;100274.66;4949720;28;20511;-72
2022/10/24 05:42:04;;;;;;;10.45;1.70;;;;;;;21.98;49.99;100269.88;4947358;29;20044;-72
2022/10/24 05:44:31;;;;;;;5.78;1.30;;;;;;;22.04;49.78;100271.34;4937108;29;20091;-70
2022/10/24 05:46:56;;;;;;;11.40;1.65;;;;;;;22.02;50.50;100273.59;4937469;29;20039;-72
2022/10/24 05:49:22;;;;;;;7.95;1.02;;;;;;;21.29;52.46;100276.78;4937736;29;20048;-71
2022/10/24 05:51:47;;;;;;;5.85;1.65;;;;;;;22.11;50.54;100269.78;4955871;28;20070;-71
2022/10/24 05:54:13;;;;;;;6.82;1.35;;;;;;;21.92;51.14;100268.38;4955895;28;20047;-72
2022/10/24 05:56:38;;;;;;;7.95;1.05;;;;;;;21.39;52.64;100269.16;4955972;28;20032;-71
2022/10/24 05:59:03;;;;;;;11.25;2.22;;;;;;;21.74;51.52;100272.94;4950901;29;20102;-71
2022/10/24 06:01:30;;;;;;;12.25;1.23;;;;;;;20.89;54.52;100273.06;4953084;28;20480;-72
2022/10/24 06:03:55;;;;;;;7.93;1.88;;;;;;;21.81;52.25;100278.81;4941164;28;20047;-73
2022/10/24 06:06:22;;;;;;;7.57;1.95;;;;;;;20.82;54.54;100265.25;4960420;28;20031;-72
2022/10/24 06:08:47;;;;;;;6.10;1.55;;;;;;;21.28;53.31;100273.25;4970431;28;20035;-71
2022/10/24 06:11:13;;;;;;;9.50;1.38;;;;;;;21.73;51.80;100268.59;4956127;29;20030;-71
2022/10/24 06:13:38;;;;;;;9.43;2.08;;;;;;;20.80;54.09;100269.41;4956021;28;20168;-73
2022/10/24 06:16:09;;;;;;;4.82;1.30;;;;;;;21.35;53.34;100273.63;4955585;28;20507;-72
2022/10/24 06:18:35;;;;;;;6.53;1.52;;;;;;;21.08;53.27;100276.47;4955468;28;20046;-72
2022/10/24 06:21:02;;;;;;;4.45;2.05;;;;;;;21.04;54.13;100282.84;4955516;28;20043;-71
2022/10/24 06:23:28;;;;;;;10.07;1.77;;;;;;;21.12;54.24;100276.66;4955164;28;20119;-70
2022/10/24 06:25:53;;;;;;;8.43;2.28;;;;;;;21.84;51.48;100268.03;4955912;28;20144;-72
2022/10/24 06:28:19;;;;;;;8.05;1.77;;;;;;;21.43;52.32;100280.28;4955795;28;20035;-72
2022/10/24 06:30:47;;;;;;;7.53;1.98;;;;;;;21.15;53.61;100279.56;4955887;28;20043;-74
2022/10/24 06:33:12;;;;;;;9.68;1.90;;;;;;;21.20;53.86;100281.38;4954882;28;20035;-74
2022/10/24 06:35:38;;;;;;;5.72;1.52;;;;;;;20.79;54.32;100293.22;4951495;28;20035;-75
2022/10/24 06:38:03;;;;;;;8.43;1.77;;;;;;;20.90;54.05;100291.84;4952321;28;20047;-74
2022/10/24 06:40:29;;;;;;;8.65;1.55;;;;;;;21.70;52.41;100289.16;4936098;29;20419;-76
2022/10/24 06:42:55;;;;;;;12.02;1.90;;;;;;;20.79;54.24;100289.66;4951071;29;20502;-76
2022/10/24 06:45:22;;;;;;;7.38;1.80;;;;;;;21.19;53.59;100290.72;4947241;28;20678;-74
2022/10/24 06:47:49;;;;;;;8.65;1.30;;;;;;;21.34;52.88;100299.38;4942124;29;20503;-75
2022/10/24 06:50:14;;;;;;;9.13;1.45;;;;;;;20.90;53.92;100294.59;4955989;29;20027;-75
2022/10/24 06:52:40;;;;;;;4.13;1.15;;;;;;;21.39;52.43;100292.94;4946433;28;20040;-74
2022/10/24 06:55:06;;;;;;;14.85;1.65;;;;;;;21.16;53.06;100291.31;4941489;29;20031;-74
2022/10/24 06:57:31;;;;;;;7.03;1.85;;;;;;;21.71;51.85;100292.72;4941726;28;20039;-75
2022/10/24 06:59:56;;;;;;;6.82;1.77;;;;;;;21.19;53.26;100299.69;4937285;29;20075;-73
2022/10/24 07:02:22;;;;;;;8.38;1.40;;;;;;;21.48;52.75;100293.84;4952189;28;20050;-75
2022/10/24 07:04:47;;;;;;;9.30;1.40;;;;;;;21.43;52.55;100302.16;4959626;28;20550;-74
2022/10/24 07:07:15;;;;;;;5.80;1.17;;;;;;;21.39;53.45;100298.41;4956757;28;20047;-72
2022/10/24 07:09:40;;;;;;;11.40;2.03;;;;;;;21.10;54.34;100307.03;4938703;29;20090;-75
2022/10/24 07:12:06;;;;;;;8.07;1.30;;;;;;;21.27;54.35;100298.97;4942692;29;20028;-75
2022/10/24 07:14:31;;;;;;;10.23;1.92;;;;;;;22.09;52.00;100304.88;4952433;28;20103;-76
2022/10/24 07:16:57;;;;;;;9.60;1.70;;;;;;;21.78;52.10;100312.22;4954970;28;20027;-75
2022/10/24 07:19:22;;;;;;;4.03;1.33;;;;;;;21.81;52.21;100298.78;4968900;28;20502;-75
2022/10/24 07:21:49;;;;;;;9.40;2.45;;;;;;;21.49;53.37;100317.31;4954569;28;20031;-74
2022/10/24 07:24:14;;;;;;;12.00;1.58;;;;;;;20.74;55.21;100311.59;4954235;28;20040;-76
2022/10/24 07:26:40;;;;;;;11.18;1.85;;;;;;;21.57;52.66;100319.31;4959999;28;20047;-75
2022/10/24 07:29:05;;;;;;;7.20;1.50;;;;;;;21.30;53.80;100319.41;4947711;29;20491;-76
2022/10/24 07:31:33;;;;;;;10.32;1.65;;;;;;;20.47;55.12;100331.53;4935720;29;20044;-73
2022/10/24 07:34:01;;;;;;;9.70;1.13;;;;;;;21.13;54.31;100327.47;4934729;29;20040;-75
2022/10/24 07:36:29;;;;;;;7.43;1.27;;;;;;;21.93;52.28;100335.69;4935386;29;20115;-76
2022/10/24 07:38:56;;;;;;;9.20;1.70;;;;;;;21.02;54.17;100334.25;4935653;29;20039;-75
2022/10/24 07:41:23;;;;;;;10.55;1.73;;;;;;;21.23;53.93;100333.50;4950838;28;20526;-75
2022/10/24 07:43:49;;;;;;;9.55;2.15;;;;;;;21.52;52.95;100325.69;4936100;29;20087;-75
2022/10/24 07:46:16;;;;;;;5.55;1.60;;;;;;;21.29;53.68;100326.81;4935814;29;20464;-75
2022/10/24 07:48:41;;;;;;;13.43;2.40;;;;;;;21.29;53.06;100337.72;4949786;29;20064;-78
2022/10/24 07:51:12;;;;;;;8.80;1.23;;;;;;;21.71;52.39;100336.47;4945858;28;20546;-74
2022/10/24 07:53:38;;;;;;;8.98;1.45;;;;;;;20.88;54.03;100337.78;4935155;29;20127;-76
2022/10/24 07:56:08;;;;;;;6.78;1.65;;;;;;;21.72;52.62;100344.38;4936162;29;20415;-73
2022/10/24 07:58:34;;;;;;;6.95;1.10;;;;;;;21.65;52.79;100344.00;4946988;28;20122;-74
2022/10/24 08:01:08;;;;;;;9.45;1.85;;;;;;;21.47;52.69;100347.72;4954170;28;20039;-73
2022/10/24 08:03:34;;;;;;;15.57;2.03;;;;;;;21.82;51.89;100337.84;4933676;29;20040;-75
2022/10/24 08:06:03;;;;;;;18.75;1.95;;;;;;;21.77;51.81;100348.91;4972488;28;20491;-73
2022/10/24 08:08:28;;;;;;;8.30;1.50;;;;;;;21.70;51.55;100335.66;4973372;28;20137;-75
2022/10/24 08:10:54;;;;;;;5.25;1.08;;;;;;;21.70;51.46;100338.38;4973362;28;20022;-72
2022/10/24 08:13:19;;;;;;;9.40;2.05;;;;;;;21.83;51.63;100334.84;4972869;28;20039;-73
2022/10/24 08:15:45;;;;;;;15.02;1.95;;;;;;;21.57;51.45;100332.97;4971152;28;20035;-72
2022/10/24 08:18:10;;;;;;;8.32;1.58;;;;;;;21.22;52.61;100340.09;4972687;28;20447;-73
2022/10/24 08:20:35;;;;;;;10.77;2.63;;;;;;;21.63;51.19;100342.69;4972714;28;20034;-75
2022/10/24 08:23:01;;;;;;;9.32;2.20;;;;;;;21.92;50.61;100348.56;4972860;28;20482;-73
2022/10/24 08:25:26;;;;;;;8.95;1.63;;;;;;;21.66;51.11;100380.38;4972863;28;20054;-75
2022/10/24 08:27:52;;;;;;;10.85;1.30;;;;;;;21.86;50.28;100360.75;4987205;28;20038;-73
2022/10/24 08:30:19;;;;;;;7.57;1.58;;;;;;;21.64;51.44;100350.56;4956090;28;20031;-72
2022/10/24 08:32:44;;;;;;;8.65;1.80;;;;;;;22.14;50.00;100353.19;4953428;28;20042;-73
2022/10/24 08:35:15;;;;;;;12.52;1.05;;;;;;;22.01;50.63;100352.16;4954043;28;20023;-73
2022/10/24 08:37:41;;;;;;;11.15;1.60;;;;;;;21.69;50.92;100366.06;4953170;28;20046;-74
2022/10/24 08:40:08;;;;;;;10.82;2.05;;;;;;;22.06;50.04;100371.19;4953241;28;20031;-73
2022/10/24 08:42:34;;;;;;;8.15;1.42;;;;;;;21.92;50.31;100372.34;4953582;28;20039;-75
2022/10/24 08:45:00;;;;;;;6.55;1.02;;;;;;;21.63;51.11;100370.03;4967898;28;20032;-75
2022/10/24 08:47:47;;;;;;;13.30;2.05;;;;;;;21.72;51.06;100371.72;4948813;28;20477;-73
2022/10/24 08:50:28;;;;;;;7.50;1.63;;;;;;;21.55;51.55;100360.66;4944366;29;20046;-72
2022/10/24 08:53:01;;;;;;;10.77;1.95;;;;;;;22.02;50.46;100367.44;4943622;29;20348;-73
2022/10/24 08:55:36;;;;;;;6.07;1.45;;;;;;;22.43;49.63;100359.78;4946709;28;20038;-71
2022/10/24 08:58:03;;;;;;;5.97;1.35;;;;;;;21.95;50.10;100372.56;4945414;28;20074;-72
2022/10/24 09:00:35;;;;;;;6.15;1.50;;;;;;;21.70;51.10;100376.69;4943118;28;20036;-71
2022/10/24 09:03:19;;;;;;;8.13;1.10;;;;;;;21.42;51.73;100372.44;4938844;29;20046;-72
2022/10/24 09:05:49;;;;;;;6.40;1.20;;;;;;;21.91;50.90;100373.50;4967448;28;20035;-72
2022/10/24 09:08:42;;;;;;;10.95;1.83;;;;;;;21.85;51.34;100370.09;4968746;28;20122;-73
2022/10/24 09:11:15;;;;;;;12.73;1.88;;;;;;;21.65;51.22;100417.03;4943113;29;20135;-72
2022/10/24 09:13:40;;;;;;;10.13;1.42;;;;;;;21.89;51.13;100403.09;4942695;29;20067;-71
2022/10/24 09:16:13;;;;;;;8.23;1.23;;;;;;;21.94;51.03;100403.78;4946158;28;20027;-73
2022/10/24 09:18:42;;;;;;;10.93;1.52;;;;;;;21.38;52.54;100419.84;4946463;29;20042;-72
2022/10/24 09:21:12;;;;;;;6.43;1.05;;;;;;;21.66;51.81;100422.19;4946713;28;20039;-72
2022/10/24 09:23:37;;;;;;;5.53;1.00;;;;;;;21.91;51.43;100400.84;4947266;28;20170;-73
2022/10/24 09:26:07;;;;;;;7.85;1.30;;;;;;;21.71;51.85;100411.13;4946141;29;20031;-72
2022/10/24 09:28:36;;;;;;;4.93;0.90;;;;;;;21.82;51.98;100408.97;4947623;28;20043;-74
2022/10/24 09:31:11;;;;;;;6.15;1.10;;;;;;;21.80;51.95;100428.44;4947362;29;20528;-73
2022/10/24 09:33:39;;;;;;;9.00;1.35;;;;;;;21.34;53.44;100427.03;4947305;29;20048;-72
2022/10/24 09:36:11;;;;;;;11.73;2.95;;;;;;;20.77;56.25;100445.63;4944634;29;20074;-72
2022/10/24 09:38:38;;;;;;;5.93;1.40;;;;;;;21.55;56.11;100437.22;4947346;29;20668;-73
2022/10/24 09:41:32;;;;;;;7.53;2.13;;;;;;;20.81;59.84;100462.22;4945688;28;20499;-72
2022/10/24 09:43:59;;;;;;;18.40;3.05;;;;;;;20.12;62.99;100455.75;4947171;28;20065;-70
2022/10/24 09:46:30;;;;;;;7.53;1.05;;;;;;;20.12;65.29;100477.59;4947297;28;20032;-71
2022/10/24 09:49:02;;;;;;;14.02;1.55;;;;;;;20.15;65.40;100463.34;4943733;29;20071;-71
2022/10/24 09:51:36;;;;;;;6.88;1.50;;;;;;;20.71;64.00;100452.31;4950139;28;20563;-70
2022/10/24 09:54:19;;;;;;;11.30;1.85;;;;;;;19.86;65.26;100456.44;4944620;28;20050;-71
2022/10/24 09:57:16;;;;;;;7.45;1.45;;;;;;;20.32;64.57;100460.09;4945032;29;20044;-71
2022/10/24 09:59:46;;;;;;;7.78;1.30;;;;;;;19.91;64.86;100453.66;4906150;29;20040;-72
2022/10/24 10:02:24;;;;;;;12.98;1.77;;;;;;;19.93;65.07;100468.59;4900598;29;20091;-74
2022/10/24 10:05:19;;;;;;;10.85;1.85;;;;;;;19.86;65.14;100479.06;4912357;29;20392;-72
2022/10/24 10:07:47;;;;;;;7.72;1.30;;;;;;;20.33;64.14;100475.34;4905801;29;20040;-74
2022/10/24 10:10:33;;;;;;;13.05;1.77;;;;;;;20.22;63.65;100484.84;4906000;29;20043;-72
2022/10/24 10:13:03;;;;;;;16.42;2.13;;;;;;;21.31;61.38;100480.38;4903934;29;20501;-74
2022/10/24 10:15:46;;;;;;;7.72;1.55;;;;;;;20.71;62.28;100492.44;4908126;29;20033;-72
2022/10/24 10:18:39;;;;;;;11.25;1.50;;;;;;;21.10;61.24;100490.09;4907253;29;20052;-73
2022/10/24 10:21:15;;;;;;;9.32;1.50;;;;;;;20.77;60.90;100496.72;4905791;29;20052;-72
2022/10/24 10:23:47;;;;;;;9.32;2.55;;;;;;;20.95;60.20;100495.84;4905573;29;20052;-74
2022/10/24 10:26:24;;;;;;;10.20;2.20;;;;;;;20.49;61.34;100497.75;4902810;29;20020;-72
2022/10/24 10:29:19;;;;;;;10.77;1.80;;;;;;;20.99;59.83;100503.09;4910907;29;20052;-72
2022/10/24 10:32:22;;;;;;;10.40;1.40;;;;;;;20.99;59.54;100499.59;4898575;29;20039;-73
2022/10/24 10:35:02;;;;;;;6.43;1.27;;;;;;;20.80;59.47;100512.50;4909488;29;20071;-72
2022/10/24 10:37:45;;;;;;;8.68;2.58;;;;;;;20.78;59.23;100514.72;4934838;29;20035;-73
2022/10/24 10:40:17;;;;;;;6.97;1.27;;;;;;;20.52;60.06;100510.81;4944110;28;20032;-72
2022/10/24 10:42:55;;;;;;;6.50;1.60;;;;;;;21.33;57.83;100512.88;4945473;28;20079;-72
2022/10/24 10:45:35;;;;;;;7.15;1.83;;;;;;;21.28;58.29;100523.91;4945368;28;20712;-72
2022/10/24 10:48:28;;;;;;;7.88;1.50;;;;;;;21.03;57.01;100541.59;4947629;28;20043;-74
2022/10/24 10:51:05;;;;;;;5.75;1.02;;;;;;;21.37;56.17;100519.34;4948543;28;20039;-73
2022/10/24 10:54:07;;;;;;;5.25;0.77;;;;;;;21.78;55.79;100526.41;4946138;28;20521;-72
2022/10/24 10:56:53;;;;;;;7.03;1.27;;;;;;;21.60;56.53;100523.81;4885724;29;20121;-74
2022/10/24 10:59:23;;;;;;;7.47;1.40;;;;;;;21.52;55.39;100530.00;4888683;29;20029;-72
2022/10/24 11:01:56;;;;;;;4.95;1.20;;;;;;;21.50;55.90;100530.28;4885942;29;20040;-75
2022/10/24 11:04:37;;;;;;;9.48;1.02;;;;;;;21.78;54.38;100534.59;4883690;29;20037;-72
2022/10/24 11:07:25;;;;;;;6.82;1.70;;;;;;;21.56;54.98;100542.72;4870329;29;20040;-72
2022/10/24 11:09:57;;;;;;;4.45;1.00;;;;;;;21.90;54.45;100546.97;4888673;29;20147;-73
2022/10/24 11:12:31;;;;;;;11.93;2.20;;;;;;;21.75;53.82;100575.44;4887250;29;20060;-73
2022/10/24 11:15:20;;;;;;;3.33;1.00;;;;;;;21.94;53.56;100545.25;4886952;29;20072;-73
2022/10/24 11:17:57;;;;;;;7.07;1.05;;;;;;;21.33;54.49;100554.69;4882218;29;20045;-74
2022/10/24 11:20:50;;;;;;;6.38;0.70;;;;;;;21.30;53.95;100549.84;4886938;29;20056;-74
2022/10/24 11:23:28;;;;;;;7.18;1.15;;;;;;;21.47;54.20;100546.50;4889678;29;20111;-73
2022/10/24 11:26:01;;;;;;;11.30;1.77;;;;;;;21.67;53.65;100565.22;4867052;29;20055;-75
2022/10/24 11:28:43;;;;;;;4.75;1.23;;;;;;;21.80;53.19;100546.09;4880594;29;20719;-73
2022/10/24 11:31:22;;;;;;;3.35;0.82;;;;;;;22.12;52.76;100558.78;4887661;29;20041;-76
2022/10/24 11:33:58;;;;;;;2.80;0.90;;;;;;;21.47;53.30;100568.34;4919241;29;20035;-73
2022/10/24 11:36:29;;;;;;;16.70;1.00;;;;;;;21.36;52.78;100567.78;4916294;29;20091;-73